createdAt,value
2022-12-11T00:01:18.852Z,55.56
2022-12-11T00:03:48.532Z,56.57
2022-12-11T00:06:21.428Z,57.23
2022-12-11T00:08:54.692Z,59.26
2022-12-11T00:11:23.648Z,60.84
2022-12-11T00:13:51.652Z,66.34
2022-12-11T00:16:23.808Z,76.02
2022-12-11T00:18:55.841Z,72.86
2022-12-11T00:21:23.701Z,64.87
2022-12-11T00:23:52.183Z,54.94
2022-12-11T00:26:20.163Z,51.41
2022-12-11T00:28:48.770Z,51.29
2022-12-11T00:31:18.997Z,53.09
2022-12-11T00:33:49.413Z,55.41
2022-12-11T00:36:24.355Z,57.59
2022-12-11T00:38:54.193Z,59.37
2022-12-11T00:41:22.540Z,61.23
2022-12-11T00:43:50.537Z,66.04
2022-12-11T00:46:18.981Z,72.78
2022-12-11T00:48:48.656Z,69.18
2022-12-11T00:51:18.334Z,63.72
2022-12-11T00:53:46.229Z,62.13
2022-12-11T00:56:22.355Z,56.74
2022-12-11T00:58:50.582Z,52.34
2022-12-11T01:01:23.925Z,53.45
2022-12-11T01:03:53.753Z,55.80
2022-12-11T01:06:26.538Z,58.26
2022-12-11T01:09:14.967Z,59.88
2022-12-11T01:11:44.121Z,61.45
2022-12-11T01:14:14.511Z,66.17
2022-12-11T01:16:42.492Z,71.61
2022-12-11T01:19:10.409Z,69.35
2022-12-11T01:21:38.272Z,65.84
2022-12-11T01:24:06.547Z,62.94
2022-12-11T01:26:34.648Z,60.59
2022-12-11T01:29:02.653Z,55.48
2022-12-11T01:31:30.596Z,51.96
2022-12-11T01:33:58.539Z,53.84
2022-12-11T01:36:26.600Z,56.06
2022-12-11T01:38:54.598Z,58.31
2022-12-11T01:41:22.563Z,60.55
2022-12-11T01:44:07.537Z,66.38
2022-12-11T01:46:37.050Z,74.64
2022-12-11T01:49:11.268Z,66.03
2022-12-11T01:52:15.849Z,61.68
2022-12-11T01:54:43.927Z,55.22
2022-12-11T01:57:14.679Z,51.57
2022-12-11T01:59:46.640Z,52.81
2022-12-11T02:02:22.621Z,53.85
2022-12-11T02:04:50.599Z,55.43
2022-12-11T02:07:18.532Z,58.08
2022-12-11T02:09:48.605Z,58.68
2022-12-11T02:12:34.035Z,59.05
2022-12-11T02:15:41.729Z,64.27
2022-12-11T02:18:40.012Z,72.13
2022-12-11T02:21:25.090Z,67.67
2022-12-11T02:24:14.023Z,64.80
2022-12-11T02:26:59.831Z,60.22
2022-12-11T02:29:42.578Z,53.67
2022-12-11T02:32:32.319Z,53.13
2022-12-11T02:35:35.726Z,55.13
2022-12-11T02:38:10.998Z,56.33
2022-12-11T02:40:42.608Z,58.68
2022-12-11T02:43:14.791Z,60.14
2022-12-11T02:45:46.455Z,66.91
2022-12-11T02:48:17.169Z,72.00
2022-12-11T02:50:50.519Z,68.65
2022-12-11T02:53:24.518Z,64.46
2022-12-11T02:56:06.838Z,61.40
2022-12-11T02:58:40.070Z,53.63
2022-12-11T03:01:08.485Z,51.28
2022-12-11T03:03:36.461Z,52.97
2022-12-11T03:06:04.556Z,54.08
2022-12-11T03:08:32.897Z,56.02
2022-12-11T03:11:00.923Z,57.91
2022-12-11T03:13:29.003Z,58.93
2022-12-11T03:16:15.532Z,59.25
2022-12-11T03:19:41.608Z,66.71
2022-12-11T03:22:41.791Z,70.61
2022-12-11T03:25:18.124Z,66.76
2022-12-11T03:27:58.714Z,63.08
2022-12-11T03:30:31.253Z,56.59
2022-12-11T03:33:09.746Z,52.81
2022-12-11T03:35:45.686Z,53.16
2022-12-11T03:38:21.331Z,55.00
2022-12-11T03:40:56.432Z,56.77
2022-12-11T03:43:26.489Z,58.47
2022-12-11T03:45:55.484Z,60.04
2022-12-11T03:48:27.341Z,64.43
2022-12-11T03:50:56.197Z,68.95
2022-12-11T03:53:27.260Z,69.30
2022-12-11T03:55:59.348Z,65.68
2022-12-11T03:58:27.410Z,62.96
2022-12-11T04:00:55.340Z,61.06
2022-12-11T04:03:23.281Z,56.33
2022-12-11T04:05:57.092Z,52.97
2022-12-11T04:08:25.281Z,54.23
2022-12-11T04:11:13.328Z,56.22
2022-12-11T04:13:42.207Z,57.88
2022-12-11T04:16:10.214Z,59.99
2022-12-11T04:18:56.856Z,65.21
2022-12-11T04:21:43.452Z,70.21
2022-12-11T04:24:17.223Z,64.93
2022-12-11T04:26:47.392Z,62.75
2022-12-11T04:29:15.559Z,61.30
2022-12-11T04:31:43.633Z,59.63
2022-12-11T04:34:11.901Z,55.58
2022-12-11T04:36:39.809Z,54.31
2022-12-11T04:39:07.845Z,55.22
2022-12-11T04:41:37.389Z,57.17
2022-12-11T04:44:05.928Z,58.79
2022-12-11T04:46:35.240Z,62.91
2022-12-11T04:49:03.361Z,68.03
2022-12-11T04:51:31.428Z,66.03
2022-12-11T04:53:59.884Z,63.16
2022-12-11T04:56:27.808Z,60.98
2022-12-11T04:58:55.640Z,56.43
2022-12-11T05:01:23.907Z,53.42
2022-12-11T05:03:51.855Z,54.20
2022-12-11T05:06:19.732Z,55.35
2022-12-11T05:08:47.635Z,56.43
2022-12-11T05:11:16.873Z,58.07
2022-12-11T05:13:45.723Z,58.35
2022-12-11T05:16:17.016Z,63.32
2022-12-11T05:18:45.144Z,69.18
2022-12-11T05:21:15.619Z,66.12
2022-12-11T05:23:43.819Z,63.17
2022-12-11T05:26:17.072Z,61.24
2022-12-11T05:28:46.925Z,57.43
2022-12-11T05:31:19.269Z,54.09
2022-12-11T05:33:50.404Z,55.25
2022-12-11T05:36:33.298Z,56.22
2022-12-11T05:39:04.082Z,56.62
2022-12-11T05:41:33.032Z,59.71
2022-12-11T05:44:00.958Z,64.13
2022-12-11T05:46:31.311Z,69.85
2022-12-11T05:49:02.485Z,67.69
2022-12-11T05:51:31.098Z,64.40
2022-12-11T05:53:59.334Z,63.05
2022-12-11T05:56:31.623Z,61.95
2022-12-11T05:59:01.745Z,61.12
2022-12-11T06:01:40.888Z,56.95
2022-12-11T06:04:11.845Z,54.57
2022-12-11T06:06:40.775Z,55.58
2022-12-11T06:09:08.706Z,58.55
2022-12-11T06:11:36.625Z,65.27
2022-12-11T06:14:04.997Z,69.33
2022-12-11T06:16:33.233Z,66.62
2022-12-11T06:19:01.319Z,64.27
2022-12-11T06:21:33.087Z,62.21
2022-12-11T06:24:04.112Z,60.84
2022-12-11T06:26:33.089Z,60.40
2022-12-11T06:29:01.015Z,58.10
2022-12-11T06:31:29.114Z,57.12
2022-12-11T06:33:57.109Z,60.50
2022-12-11T06:36:25.601Z,64.69
2022-12-11T06:38:55.500Z,66.73
2022-12-11T06:41:23.510Z,63.34
2022-12-11T06:43:51.505Z,61.51
2022-12-11T06:46:20.619Z,58.53
2022-12-11T06:48:49.720Z,55.32
2022-12-11T06:51:22.514Z,57.09
2022-12-11T06:53:56.527Z,59.44
2022-12-11T06:56:25.421Z,66.14
2022-12-11T06:58:53.722Z,66.70
2022-12-11T07:01:28.360Z,62.26
2022-12-11T07:03:59.282Z,60.41
2022-12-11T07:06:28.955Z,57.40
2022-12-11T07:08:57.333Z,57.07
2022-12-11T07:11:25.229Z,59.44
2022-12-11T07:13:53.062Z,64.19
2022-12-11T07:16:21.646Z,65.78
2022-12-11T07:18:51.567Z,62.95
2022-12-11T07:21:21.281Z,60.08
2022-12-11T07:23:50.492Z,56.45
2022-12-11T07:26:22.244Z,56.30
2022-12-11T07:28:50.497Z,58.82
2022-12-11T07:31:25.178Z,61.05
2022-12-11T07:33:55.974Z,65.66
2022-12-11T07:36:24.974Z,66.25
2022-12-11T07:38:54.131Z,62.59
2022-12-11T07:41:23.416Z,60.35
2022-12-11T07:43:51.462Z,57.54
2022-12-11T07:46:25.129Z,57.64
2022-12-11T07:48:53.374Z,59.31
2022-12-11T07:51:28.586Z,63.63
2022-12-11T07:54:02.877Z,65.84
2022-12-11T07:56:32.014Z,64.08
2022-12-11T07:59:02.760Z,61.64
2022-12-11T08:01:37.036Z,60.39
2022-12-11T08:04:14.154Z,56.54
2022-12-11T08:06:43.407Z,57.03
2022-12-11T08:09:20.892Z,60.00
2022-12-11T08:11:51.121Z,64.28
2022-12-11T08:14:20.415Z,65.87
2022-12-11T08:16:49.924Z,63.57
2022-12-11T08:19:18.441Z,62.34
2022-12-11T08:21:47.069Z,61.48
2022-12-11T08:24:20.334Z,61.25
2022-12-11T08:26:48.862Z,60.27
2022-12-11T08:29:16.922Z,57.03
2022-12-11T08:31:44.871Z,55.30
2022-12-11T08:34:14.327Z,56.11
2022-12-11T08:36:42.521Z,58.19
2022-12-11T08:39:10.507Z,59.23
2022-12-11T08:41:38.364Z,63.25
2022-12-11T08:44:16.271Z,67.65
2022-12-11T08:46:45.970Z,64.88
2022-12-11T08:49:15.385Z,60.11
2022-12-11T08:51:43.367Z,57.76
2022-12-11T08:54:11.917Z,56.03
2022-12-11T08:56:40.176Z,56.66
2022-12-11T08:59:08.375Z,59.06
2022-12-11T09:01:37.852Z,64.21
2022-12-11T09:04:06.340Z,68.27
2022-12-11T09:06:34.269Z,67.14
2022-12-11T09:09:04.736Z,62.54
2022-12-11T09:11:37.832Z,58.28
2022-12-11T09:14:07.831Z,56.74
2022-12-11T09:16:40.818Z,57.79
2022-12-11T09:19:14.886Z,59.02
2022-12-11T09:21:46.328Z,62.38
2022-12-11T09:24:16.315Z,68.72
2022-12-11T09:26:44.306Z,67.43
2022-12-11T09:29:12.747Z,65.29
2022-12-11T09:31:41.192Z,60.50
2022-12-11T09:34:12.851Z,56.59
2022-12-11T09:36:45.205Z,54.86
2022-12-11T09:39:18.173Z,56.45
2022-12-11T09:42:33.546Z,58.11
2022-12-11T09:45:04.629Z,57.87
2022-12-11T09:47:42.829Z,63.33
2022-12-11T09:50:23.764Z,69.21
2022-12-11T09:53:20.500Z,66.90
2022-12-11T09:56:01.589Z,64.94
2022-12-11T09:58:41.510Z,62.61
2022-12-11T10:01:22.521Z,60.79
2022-12-11T10:04:40.040Z,56.33
2022-12-11T10:07:38.366Z,53.71
2022-12-11T10:10:23.452Z,55.65
2022-12-11T10:13:02.104Z,56.85
2022-12-11T10:16:01.359Z,58.70
2022-12-11T10:18:31.405Z,64.87
2022-12-11T10:21:03.520Z,67.77
2022-12-11T10:23:42.095Z,66.00
2022-12-11T10:26:19.881Z,63.45
2022-12-11T10:28:48.904Z,62.24
2022-12-11T10:31:28.775Z,58.82
2022-12-11T10:34:12.315Z,57.40
2022-12-11T10:36:43.511Z,59.13
2022-12-11T10:39:18.485Z,65.29
2022-12-11T10:41:49.972Z,67.34
2022-12-11T10:44:31.197Z,65.88
2022-12-11T10:47:18.569Z,64.73
2022-12-11T10:50:02.669Z,63.80
2022-12-11T10:52:44.140Z,61.78
2022-12-11T10:55:32.229Z,60.23
2022-12-11T10:58:22.523Z,57.76
2022-12-11T11:01:21.641Z,57.28
2022-12-11T11:03:57.682Z,60.84
2022-12-11T11:06:27.404Z,65.30
2022-12-11T11:08:59.681Z,68.00
2022-12-11T11:11:39.499Z,66.23
2022-12-11T11:14:20.690Z,64.29
2022-12-11T11:16:52.557Z,62.25
2022-12-11T11:19:28.026Z,61.12
2022-12-11T11:22:09.502Z,60.67
2022-12-11T11:24:44.396Z,60.64
2022-12-11T11:27:28.526Z,60.58
2022-12-11T11:30:02.067Z,60.30
2022-12-11T11:32:41.196Z,60.30
2022-12-11T11:35:17.162Z,59.89
2022-12-11T11:37:55.934Z,57.59
2022-12-11T11:40:38.670Z,57.03
2022-12-11T11:43:44.709Z,60.90
2022-12-11T11:46:23.905Z,64.67
2022-12-11T11:49:00.617Z,66.32
2022-12-11T11:52:03.446Z,64.00
2022-12-11T11:54:43.262Z,61.37
2022-12-11T11:57:37.869Z,60.08
2022-12-11T12:00:23.817Z,57.75
2022-12-11T12:03:14.157Z,58.59
2022-12-11T12:06:15.325Z,62.15
2022-12-11T12:09:09.381Z,66.77
2022-12-11T12:11:56.061Z,64.59
2022-12-11T12:15:02.100Z,63.08
2022-12-11T12:18:02.249Z,61.25
2022-12-11T12:21:12.632Z,60.32
2022-12-11T12:23:57.123Z,58.90
2022-12-11T12:26:37.576Z,57.05
2022-12-11T12:29:32.063Z,57.62
2022-12-11T12:32:14.431Z,61.00
2022-12-11T12:35:14.922Z,64.95
2022-12-11T12:37:58.006Z,65.52
2022-12-11T12:40:47.458Z,63.24
2022-12-11T12:43:36.397Z,61.09
2022-12-11T12:46:09.630Z,57.74
2022-12-11T12:48:38.240Z,57.85
2022-12-11T12:51:07.233Z,60.25
2022-12-11T12:53:37.453Z,63.58
2022-12-11T12:56:07.428Z,65.63
2022-12-11T12:58:35.631Z,62.71
2022-12-11T13:01:26.327Z,60.93
2022-12-11T13:04:05.898Z,57.91
2022-12-11T13:06:45.461Z,57.73
2022-12-11T13:09:22.495Z,59.40
2022-12-11T13:11:54.099Z,64.71
2022-12-11T13:14:32.727Z,64.98
2022-12-11T13:17:32.504Z,62.76
2022-12-11T13:20:23.586Z,60.76
2022-12-11T13:23:19.710Z,61.14
2022-12-11T13:25:51.071Z,60.14
2022-12-11T13:28:30.119Z,57.89
2022-12-11T13:31:16.533Z,56.57
2022-12-11T13:33:51.044Z,58.34
2022-12-11T13:36:31.503Z,61.25
2022-12-11T13:39:06.651Z,66.09
2022-12-11T13:41:41.051Z,66.60
2022-12-11T13:44:26.540Z,62.72
2022-12-11T13:47:02.280Z,61.28
2022-12-11T13:49:37.333Z,60.55
2022-12-11T13:52:07.590Z,57.79
2022-12-11T13:54:36.588Z,56.71
2022-12-11T13:57:21.498Z,59.34
2022-12-11T13:59:55.748Z,61.17
2022-12-11T14:02:35.717Z,66.08
2022-12-11T14:05:10.051Z,67.38
2022-12-11T14:07:48.618Z,64.21
2022-12-11T14:10:29.449Z,61.54
2022-12-11T14:13:33.527Z,60.37
2022-12-11T14:16:02.994Z,57.11
2022-12-11T14:18:35.512Z,57.75
2022-12-11T14:21:07.401Z,60.84
2022-12-11T14:23:41.094Z,64.11
2022-12-11T14:26:26.920Z,66.37
2022-12-11T14:28:56.153Z,64.48
2022-12-11T14:31:44.599Z,62.74
2022-12-11T14:34:27.724Z,61.06
2022-12-11T14:36:57.094Z,57.69
2022-12-11T14:39:54.593Z,57.85
2022-12-11T14:42:29.948Z,59.15
2022-12-11T14:45:23.164Z,63.50
2022-12-11T14:47:55.044Z,66.68
2022-12-11T14:50:38.180Z,63.61
2022-12-11T14:53:23.692Z,61.37
2022-12-11T14:55:53.183Z,62.06
2022-12-11T14:58:27.173Z,55.42
2022-12-11T15:01:00.953Z,54.73
2022-12-11T15:03:41.110Z,56.32
2022-12-11T15:06:29.107Z,58.61
2022-12-11T15:08:57.511Z,62.25
2022-12-11T15:11:33.000Z,67.34
2022-12-11T15:14:05.668Z,67.67
2022-12-11T15:16:41.081Z,63.71
2022-12-11T15:19:31.143Z,61.60
2022-12-11T15:22:09.828Z,56.43
2022-12-11T15:24:43.929Z,55.83
2022-12-11T15:27:37.727Z,58.56
2022-12-11T15:30:18.209Z,60.81
2022-12-11T15:32:46.608Z,65.60
2022-12-11T15:35:25.633Z,65.91
2022-12-11T15:37:56.587Z,62.88
2022-12-11T15:40:25.686Z,61.26
2022-12-11T15:42:55.223Z,56.83
2022-12-11T15:45:28.648Z,55.80
2022-12-11T15:47:57.720Z,58.98
2022-12-11T15:50:28.914Z,61.47
2022-12-11T15:52:57.831Z,65.49
2022-12-11T15:55:29.829Z,66.11
2022-12-11T15:58:07.336Z,62.78
2022-12-11T16:00:35.934Z,56.85
2022-12-11T16:03:04.023Z,55.93
2022-12-11T16:05:32.093Z,57.51
2022-12-11T16:08:00.128Z,60.31
2022-12-11T16:10:28.204Z,63.60
2022-12-11T16:12:59.947Z,64.12
2022-12-11T16:15:27.817Z,62.44
2022-12-11T16:18:11.961Z,61.26
2022-12-11T16:20:42.968Z,55.04
2022-12-11T16:23:13.427Z,54.49
2022-12-11T16:25:46.320Z,56.94
2022-12-11T16:28:18.737Z,59.17
2022-12-11T16:30:47.464Z,62.13
2022-12-11T16:33:17.968Z,66.05
2022-12-11T16:35:46.189Z,62.99
2022-12-11T16:38:15.967Z,58.34
2022-12-11T16:40:46.845Z,55.47
2022-12-11T16:43:15.013Z,55.92
2022-12-11T16:45:43.403Z,58.58
2022-12-11T16:48:11.464Z,60.43
2022-12-11T16:50:40.455Z,63.57
2022-12-11T16:53:08.415Z,63.53
2022-12-11T16:55:36.286Z,58.57
2022-12-11T16:58:09.745Z,55.50
2022-12-11T17:00:39.181Z,57.39
2022-12-11T17:03:07.170Z,58.12
2022-12-11T17:05:36.383Z,60.95
2022-12-11T17:08:04.394Z,62.15
2022-12-11T17:10:32.448Z,65.58
2022-12-11T17:13:00.527Z,64.62
2022-12-11T17:15:28.440Z,62.27
2022-12-11T17:18:12.788Z,56.41
2022-12-11T17:23:42.446Z,54.84
2022-12-11T17:25:08.733Z,57.59
2022-12-11T17:27:36.698Z,59.73
2022-12-11T17:30:08.261Z,61.01
2022-12-11T17:32:36.419Z,62.68
2022-12-11T17:35:04.717Z,65.45
2022-12-11T17:37:35.400Z,64.36
2022-12-11T17:40:05.821Z,58.89
2022-12-11T17:42:34.072Z,55.45
2022-12-11T17:45:02.337Z,56.80
2022-12-11T17:47:30.240Z,58.33
2022-12-11T17:49:58.211Z,59.70
2022-12-11T17:52:32.341Z,60.94
2022-12-11T17:55:03.263Z,63.45
2022-12-11T17:57:31.924Z,64.77
2022-12-11T18:00:00.103Z,61.24
2022-12-11T18:02:34.712Z,57.74
2022-12-11T18:05:05.913Z,56.55
2022-12-11T18:07:38.027Z,58.07
2022-12-11T18:10:08.311Z,59.95
2022-12-11T18:12:36.499Z,60.83
2022-12-11T18:15:14.528Z,62.31
2022-12-11T18:17:42.618Z,65.34
2022-12-11T18:20:16.800Z,64.20
2022-12-11T18:22:44.722Z,58.82
2022-12-11T18:25:13.013Z,56.71
2022-12-11T18:27:41.250Z,58.55
2022-12-11T18:30:12.898Z,59.93
2022-12-11T18:32:43.056Z,61.84
2022-12-11T18:35:12.188Z,64.57
2022-12-11T18:37:41.401Z,65.03
2022-12-11T18:40:14.354Z,62.06
2022-12-11T18:42:42.347Z,57.61
2022-12-11T18:45:11.035Z,55.95
2022-12-11T18:47:39.312Z,57.61
2022-12-11T18:50:08.382Z,59.91
2022-12-11T18:52:36.504Z,61.25
2022-12-11T18:55:05.211Z,64.02
2022-12-11T18:57:33.515Z,65.98
2022-12-11T19:00:07.517Z,62.03
2022-12-11T19:02:36.192Z,56.87
2022-12-11T19:05:05.090Z,56.19
2022-12-11T19:07:33.258Z,57.72
2022-12-11T19:10:01.341Z,59.12
2022-12-11T19:12:29.205Z,61.37
2022-12-11T19:14:57.114Z,64.66
2022-12-11T19:17:25.072Z,63.87
2022-12-11T19:19:53.458Z,60.34
2022-12-11T19:22:21.430Z,56.26
2022-12-11T19:24:49.317Z,57.22
2022-12-11T19:27:17.528Z,59.19
2022-12-11T19:29:45.362Z,60.25
2022-12-11T19:32:13.300Z,63.80
2022-12-11T19:34:41.427Z,64.43
2022-12-11T19:37:09.568Z,61.84
2022-12-11T19:39:41.142Z,57.38
2022-12-11T19:42:09.102Z,56.93
2022-12-11T19:44:39.745Z,58.95
2022-12-11T19:47:07.768Z,61.35
2022-12-11T19:49:35.679Z,64.33
2022-12-11T19:52:04.925Z,64.10
2022-12-11T19:54:32.972Z,60.62
2022-12-11T19:57:00.944Z,57.14
2022-12-11T19:59:28.871Z,57.73
2022-12-11T20:01:56.873Z,59.41
2022-12-11T20:04:24.796Z,62.54
2022-12-11T20:06:52.750Z,65.70
2022-12-11T20:09:20.747Z,64.74
2022-12-11T20:11:48.896Z,61.43
2022-12-11T20:14:26.180Z,58.14
2022-12-11T20:17:13.826Z,56.41
2022-12-11T20:19:43.226Z,58.07
2022-12-11T20:22:11.987Z,60.81
2022-12-11T20:24:40.096Z,63.77
2022-12-11T20:27:09.010Z,64.78
2022-12-11T20:29:38.034Z,62.00
2022-12-11T20:32:06.113Z,58.95
2022-12-11T20:34:34.023Z,58.33
2022-12-11T20:37:01.900Z,60.48
2022-12-11T20:39:30.797Z,63.23
2022-12-11T20:41:58.782Z,64.52
2022-12-11T20:44:26.656Z,62.06
2022-12-11T20:46:54.860Z,60.05
2022-12-11T20:49:22.732Z,56.72
2022-12-11T20:51:50.666Z,56.88
2022-12-11T20:54:18.744Z,58.63
2022-12-11T20:56:47.117Z,60.60
2022-12-11T20:59:15.719Z,64.41
2022-12-11T21:01:44.597Z,65.63
2022-12-11T21:04:12.568Z,61.63
2022-12-11T21:06:42.165Z,61.33
2022-12-11T21:09:17.847Z,58.25
2022-12-11T21:11:46.161Z,56.10
2022-12-11T21:14:15.922Z,58.08
2022-12-11T21:16:44.505Z,59.20
2022-12-11T21:19:17.107Z,60.61
2022-12-11T21:21:46.457Z,62.27
2022-12-11T21:24:21.415Z,65.02
2022-12-11T21:26:50.124Z,63.65
2022-12-11T21:29:18.404Z,60.50
2022-12-11T21:31:46.283Z,57.88
2022-12-11T21:34:22.061Z,57.83
2022-12-11T21:36:57.079Z,59.40
2022-12-11T21:39:28.672Z,62.10
2022-12-11T21:41:58.303Z,65.56
2022-12-11T21:45:58.882Z,64.66
2022-12-11T21:47:14.249Z,61.38
2022-12-11T21:49:42.271Z,59.20
2022-12-11T21:52:10.954Z,58.66
2022-12-11T21:54:39.096Z,60.26
2022-12-11T21:57:07.362Z,63.70
2022-12-11T21:59:35.930Z,64.04
2022-12-11T22:02:04.679Z,61.21
2022-12-11T22:04:37.950Z,57.81
2022-12-11T22:07:05.945Z,57.45
2022-12-11T22:09:33.891Z,58.40
2022-12-11T22:12:01.903Z,61.49
2022-12-11T22:14:31.510Z,63.75
2022-12-11T22:16:59.715Z,66.39
2022-12-11T22:19:32.322Z,64.93
2022-12-11T22:22:00.785Z,62.69
2022-12-11T22:24:28.757Z,59.85
2022-12-11T22:26:56.697Z,56.75
2022-12-11T22:29:24.720Z,56.97
2022-12-11T22:31:53.555Z,58.46
2022-12-11T22:34:22.474Z,59.76
2022-12-11T22:36:51.179Z,62.43
2022-12-11T22:39:19.113Z,64.48
2022-12-11T22:41:46.987Z,62.58
2022-12-11T22:44:21.457Z,59.90
2022-12-11T22:46:50.440Z,56.43
2022-12-11T22:49:20.482Z,56.43
2022-12-11T22:51:49.260Z,58.10
2022-12-11T22:54:17.153Z,60.09
2022-12-11T22:56:45.140Z,61.66
2022-12-11T22:59:13.060Z,64.13
2022-12-11T23:01:41.189Z,65.06
2022-12-11T23:04:09.030Z,63.43
2022-12-11T23:06:36.945Z,62.13
2022-12-11T23:09:04.889Z,58.89
2022-12-11T23:11:37.551Z,56.39
2022-12-11T23:14:09.140Z,57.88
2022-12-11T23:16:37.195Z,58.73
2022-12-11T23:19:05.124Z,59.63
2022-12-11T23:21:33.961Z,61.92
2022-12-11T23:24:02.968Z,64.10
2022-12-11T23:26:31.757Z,65.01
2022-12-11T23:29:00.121Z,62.23
2022-12-11T23:31:30.285Z,58.18
2022-12-11T23:33:58.535Z,56.21
2022-12-11T23:36:28.570Z,57.54
2022-12-11T23:38:56.565Z,58.66
2022-12-11T23:41:24.837Z,59.07
2022-12-11T23:43:52.835Z,59.85
2022-12-11T23:46:24.219Z,60.36
2022-12-11T23:48:53.471Z,61.27
2022-12-11T23:51:24.753Z,63.79
2022-12-11T23:53:54.155Z,63.84
2022-12-11T23:56:29.337Z,60.97
2022-12-11T23:58:58.047Z,56.78
